Flugplatz Ingolstadt Manching Airport

Bericht für ETSI

vom 25.02. um 16:20 UTC

Wind 12 kt aus 260°

Sichtweite 10 km oder mehr

aufgelockert bewölkt in 2200 ft

aufgebrochene Bewölkung in 3500 ft

aufgebrochene Bewölkung in 5000 ft

Temperatur 9.0°C

Taupunkt 5.0°C

Luftfeuchtigkeit 76%

Luftdruck 1002 hPa

ETSI 251620Z 26012KT 9999 SCT022 BKN035 BKN050 09/05 Q1002 BLU
Keine Prognose (TAF) verfügbar.
Impressum